This is the latest recevied weather packets stored in our database for station/object WD4ITN. If no packets are shown the sender has not sent any weather packets the latest 10 day(s).
| Time | Temp. | Humidity | Pressure | Rain* | Wind** | Luminosity | Snow |
|---|---|---|---|---|---|---|---|
| 1787771306 | 24.44° C | 71% | 1018 hPa | 0 mm | - | - | - |
| 1787771003 | 24.44° C | 72% | 1018.2 hPa | 0 mm | - | - | - |
| 1787770697 | 24.44° C | 72% | 1018.2 hPa | 0 mm | - | - | - |
| 1787770395 | 23.89° C | 72% | 1018.1 hPa | 0 mm | - | - | - |
| 1787770098 | 24.44° C | 71% | 1018.1 hPa | 0 mm | - | - | - |
| 1787769796 | 24.44° C | 71% | 1018.3 hPa | 0 mm | - | - | - |
| 1787769519 | 24.44° C | 71% | 1018.2 hPa | 0 mm | - | - | - |
| 1787769192 | 24.44° C | 71% | 1018.2 hPa | 0 mm | - | - | - |
| 1787768908 | 24.44° C | 67% | 1018.3 hPa | 0 mm | - | - | - |
| 1787768610 | 23.89° C | 74% | 1018.5 hPa | 0 mm | - | - | - |
| 1787768309 | 23.89° C | 72% | 1018.5 hPa | 0 mm | - | - | - |
| 1787768000 | 23.33° C | 71% | 1018.6 hPa | 0 mm | - | - | - |
| 1787767698 | 23.89° C | 71% | 1018.7 hPa | 0 mm | - | - | - |
| 1787767395 | 23.89° C | 75% | 1018.9 hPa | 0 mm | - | - | - |
| 1787767092 | 23.89° C | 71% | 1018.8 hPa | 0 mm | - | - | - |
| 1787766822 | 24.44° C | 71% | 1018.9 hPa | 0 mm | - | - | - |
| 1787766511 | 24.44° C | 75% | 1018.9 hPa | 0 mm | - | - | - |
| 1787766209 | 23.89° C | 72% | 1018.9 hPa | 0 mm | - | - | - |
| 1787765907 | 23.89° C | 76% | 1019 hPa | 0 mm | - | - | - |
| 1787765615 | 23.33° C | 73% | 1019 hPa | 0 mm | - | - | - |
| 1787765302 | 23.33° C | 73% | 1019.1 hPa | 0 mm | - | - | - |
| 1787764997 | 23.33° C | 76% | 1019.3 hPa | 0 mm | - | - | - |
| 1787764705 | 22.78° C | 75% | 1019.4 hPa | 0 mm | - | - | - |
| 1787764402 | 23.33° C | 73% | 1019.3 hPa | 0 mm | - | - | - |
| 1787764100 | 23.33° C | 74% | 1019.4 hPa | 0 mm | - | - | - |
* Rain since midnight (hover to see other rain measurements)
** Current wind speed in m/s (hover to see current wind gust speed)